WetterOnline ( https://www.wetteronline.de )

Wetter aktuell Kempten

Aktuelles Wetter: Kempten (705m)

6-stündlich | Neueste Meldungen
Ortszeit Temperatur Wetter
Fr, 23.02. 7:00 2.3° C wolkig
Fr, 23.02. 1:00 5.2° C leichter Regen
Do, 22.02. 19:00 8.1° C leichter Regen
Do, 22.02. 13:00 11.3° C Sprühregen
Do, 22.02. 7:00 8.1° C leichter Regen
Do, 22.02. 1:00 11.2° C leicht bewölkt
Mi, 21.02. 19:00 9.2° C bedeckt
Mi, 21.02. 13:00 10.8° C wolkig
Ortszeit Temperatur Wetter
Fr, 23.02. 8:00 2.3° C Sprühregen
Fr, 23.02. 7:40 2.1° C leichter Regen
Fr, 23.02. 7:30 2.2° C wolkig
Fr, 23.02. 7:20 2.2° C wolkig
Fr, 23.02. 7:10 2.2° C leichter Regen
Fr, 23.02. 7:00 2.3° C wolkig
Fr, 23.02. 6:50 2.3° C wolkig
Fr, 23.02. 6:30 2.4° C wolkig
Fr, 23.02. 6:00 2.4° C leicht bewölkt
Fr, 23.02. 5:30 2.4° C leichter Regen
Fr, 23.02. 5:00 2.9° C leichter Regen
Ortszeit Relative Feuchte Sichtweite
Fr, 23.02. 7:00 89% 65 km
Fr, 23.02. 1:00 82% 18 km
Do, 22.02. 19:00 84% 35 km
Do, 22.02. 13:00 69% 40 km
Do, 22.02. 7:00 65% 30 km
Do, 22.02. 1:00 50% >70 km
Mi, 21.02. 19:00 51% >70 km
Mi, 21.02. 13:00 47% 55 km
Ortszeit Relative Feuchte Sichtweite
Fr, 23.02. 8:00 91% 55 km
Fr, 23.02. 7:40 92% -
Fr, 23.02. 7:30 90% 60 km
Fr, 23.02. 7:20 90% -
Fr, 23.02. 7:10 90% -
Fr, 23.02. 7:00 89% 65 km
Fr, 23.02. 6:50 89% -
Fr, 23.02. 6:30 87% >70 km
Fr, 23.02. 6:00 87% >70 km
Fr, 23.02. 5:30 87% 24 km
Fr, 23.02. 5:00 85% 19 km
Ortszeit Niederschlagsmenge Niederschlagsart
Fr, 23.02. 7:00 8 l/m2 in 12 Std. Regen
Fr, 23.02. 1:00 6 l/m2 in 6 Std. Regen
Do, 22.02. 19:00 2 l/m2 in 12 Std. Regen
Do, 22.02. 13:00 1 l/m2 in 6 Std. Regen
Do, 22.02. 7:00 0.1 l/m2 in 12 Std. Regen
Do, 22.02. 1:00 0.1 l/m2 in 6 Std. Regen
Mi, 21.02. 19:00 0.0 l/m2 in 12 Std. -
Mi, 21.02. 13:00 0.0 l/m2 in 6 Std. -
Ortszeit Niederschlagsmenge Niederschlagsart
Fr, 23.02. 8:00 <0.05 l/m2 in 1 Std. Regen
Fr, 23.02. 7:40 keine Meldung -
Fr, 23.02. 7:30 <0.05 l/m2 in 30 Min Schneeregen
Fr, 23.02. 7:20 keine Meldung -
Fr, 23.02. 7:10 keine Meldung -
Fr, 23.02. 7:00 <0.05 l/m2 in 1 Std. Regen
Fr, 23.02. 6:50 keine Meldung -
Fr, 23.02. 6:30 <0.05 l/m2 in 30 Min Schnee
Fr, 23.02. 6:00 0.2 l/m2 in 1 Std. Regen
Fr, 23.02. 5:30 0.2 l/m2 in 30 Min -
Fr, 23.02. 5:00 1.0 l/m2 in 1 Std. Regen
Ortszeit Stärke Spitze Richtung
km/h Bft. km/h Grad Sektor
Fr, 23.02. 7:00 11 2 43 200° S
Fr, 23.02. 1:00 14 3 58 250° W
Do, 22.02. 19:00 7 2 40 130° SO
Do, 22.02. 13:00 6 1 37 260° W
Do, 22.02. 7:00 18 3 32 280° W
Do, 22.02. 1:00 9 2 35 250° W
Mi, 21.02. 19:00 9 2 19 200° S
Mi, 21.02. 13:00 2 1 17 110° O
Ortszeit Stärke Spitze Richtung
km/h Bft. km/h Grad Sektor
Fr, 23.02. 8:00 4 1 18 230° SW
Fr, 23.02. 7:40 6 1 - 200° S
Fr, 23.02. 7:30 7 2 18 220° SW
Fr, 23.02. 7:20 7 2 - 220° SW
Fr, 23.02. 7:10 7 2 - 200° S
Fr, 23.02. 7:00 11 2 22 200° S
Fr, 23.02. 6:50 11 2 - 200° S
Fr, 23.02. 6:30 9 2 22 210° SW
Fr, 23.02. 6:00 11 2 22 210° SW
Fr, 23.02. 5:30 11 2 22 230° SW
Fr, 23.02. 5:00 13 3 24 260° W
Ortszeit Untergrenze Bedeckung Gattung
total tief tief mittel hoch
Fr, 23.02. 7:00 1800 m 5/8 5/8 - - -
Fr, 23.02. 1:00 570 m 7/8 7/8 - - -
Do, 22.02. 19:00 1470 m 5/8 5/8 - - -
Do, 22.02. 13:00 1290 m 8/8 8/8 - - -
Do, 22.02. 7:00 1140 m 7/8 7/8 - - -
Do, 22.02. 1:00 1500 m 4/8 3/8 - - -
Mi, 21.02. 19:00 3000 m 8/8 8/8 - - -
Mi, 21.02. 13:00 6600 m 8/8 7/8 - - -
Ortszeit Bedeckungsgrad in Achtel und Wolkenuntergrenze
Fr, 23.02. 8:00 1(720m) 5(1500m)
Fr, 23.02. 7:40 4
Fr, 23.02. 7:30 1(510m) 6(1500m)
Fr, 23.02. 7:20 1(510m) 6(1500m)
Fr, 23.02. 7:10 7
Fr, 23.02. 7:00 5(1800m)
Fr, 23.02. 6:50 5(1800m)
Fr, 23.02. 6:30 5(2100m)
Fr, 23.02. 6:00 2(1500m) 3(1800m)
Fr, 23.02. 5:30 2(540m)
Fr, 23.02. 5:00 6(510m) 7(660m)
Ortszeit Luftdruck NN (hPa) Tendenz (hPa in 3 Std.)
Fr, 23.02. 7:00 1002 + 0,2
Fr, 23.02. 1:00 1000 + 3,3
Do, 22.02. 19:00 997 - 1,4
Do, 22.02. 13:00 1001 - 3,1
Do, 22.02. 7:00 1007 - 1,7
Do, 22.02. 1:00 1011 - 2,8
Mi, 21.02. 19:00 1017 - 1,0
Mi, 21.02. 13:00 1021 - 1,9
Ortszeit Luftdruck NN (hPa) Tendenz (hPa in 3 Std.)
Fr, 23.02. 8:00 1002 - 0,1
Fr, 23.02. 7:40 1002 keine Meldung
Fr, 23.02. 7:30 1002 0,0
Fr, 23.02. 7:20 1002 keine Meldung
Fr, 23.02. 7:10 1002 keine Meldung
Fr, 23.02. 7:00 1002 + 0,2
Fr, 23.02. 6:50 1002 keine Meldung
Fr, 23.02. 6:30 1002 0,0
Fr, 23.02. 6:00 1002 + 0,5
Fr, 23.02. 5:30 1002 + 0,8
Fr, 23.02. 5:00 1002 + 0,6
Ortszeit Schneehöhe (cm)
Fr, 23.02. 7:00 0
Fr, 23.02. 1:00 0
Do, 22.02. 19:00 0
Do, 22.02. 13:00 0
Do, 22.02. 7:00 0
Do, 22.02. 1:00 0
Mi, 21.02. 19:00 0
Mi, 21.02. 13:00 0
Ortszeit Schneehöhe (cm)
Fr, 23.02. 8:00 0
Fr, 23.02. 7:40 -
Fr, 23.02. 7:30 0
Fr, 23.02. 7:20 0
Fr, 23.02. 7:10 -
Fr, 23.02. 7:00 0
Fr, 23.02. 6:50 0
Fr, 23.02. 6:30 0
Fr, 23.02. 6:00 0
Fr, 23.02. 5:30 0
Fr, 23.02. 5:00 0
Link zu dieser Seite / Seite empfehlen

Das Wetter in ...